createdAt,value
2018-05-29T00:00:14.041Z,77.30
2018-05-29T00:02:42.284Z,77.77
2018-05-29T00:05:11.324Z,77.81
2018-05-29T00:07:39.582Z,78.06
2018-05-29T00:10:07.845Z,78.23
2018-05-29T00:12:36.182Z,79.38
2018-05-29T00:15:04.520Z,79.64
2018-05-29T00:17:32.831Z,80.71
2018-05-29T00:20:01.147Z,80.82
2018-05-29T00:22:29.404Z,81.57
2018-05-29T00:24:57.677Z,81.73
2018-05-29T00:27:25.961Z,80.98
2018-05-29T00:29:54.203Z,81.10
2018-05-29T00:32:23.216Z,81.15
2018-05-29T00:34:51.487Z,80.92
2018-05-29T00:37:19.750Z,82.56
2018-05-29T00:39:47.988Z,82.38
2018-05-29T00:42:16.265Z,82.27
2018-05-29T00:44:44.520Z,82.74
2018-05-29T00:47:13.541Z,81.80
2018-05-29T00:49:41.808Z,81.20
2018-05-29T00:52:10.164Z,81.43
2018-05-29T00:54:38.456Z,81.57
2018-05-29T00:57:06.807Z,81.68
2018-05-29T00:59:35.970Z,81.36
2018-05-29T01:02:04.300Z,81.57
2018-05-29T01:04:32.639Z,81.83
2018-05-29T01:07:00.943Z,81.81
2018-05-29T01:09:30.031Z,82.88
2018-05-29T01:11:59.065Z,82.67
2018-05-29T01:14:27.331Z,81.70
2018-05-29T01:16:56.340Z,82.52
2018-05-29T01:19:24.624Z,82.22
2018-05-29T01:21:52.864Z,81.68
2018-05-29T01:24:21.894Z,81.74
2018-05-29T01:26:50.150Z,81.42
2018-05-29T01:29:18.417Z,81.40
2018-05-29T01:31:47.430Z,81.37
2018-05-29T01:34:15.699Z,81.54
2018-05-29T01:36:47.550Z,81.63
2018-05-29T01:39:15.824Z,81.41
2018-05-29T01:41:44.073Z,81.81
2018-05-29T01:44:12.324Z,82.66
2018-05-29T01:46:40.593Z,83.17
2018-05-29T01:49:08.847Z,83.39
2018-05-29T01:51:37.109Z,83.79
2018-05-29T01:54:05.379Z,84.20
2018-05-29T01:56:34.389Z,85.02
2018-05-29T01:59:02.645Z,85.36
2018-05-29T02:01:31.673Z,85.10
2018-05-29T02:03:59.924Z,85.93
2018-05-29T02:06:28.170Z,85.96
2018-05-29T02:08:56.432Z,85.77
2018-05-29T02:11:24.689Z,85.62
2018-05-29T02:13:52.938Z,86.63
2018-05-29T02:16:21.210Z,86.92
2018-05-29T02:18:49.476Z,87.14
2018-05-29T02:21:17.728Z,87.35
2018-05-29T02:23:45.992Z,87.54
2018-05-29T02:26:14.249Z,87.62
2018-05-29T02:28:42.505Z,88.40
2018-05-29T02:31:10.791Z,89.67
2018-05-29T02:33:39.036Z,90.17
2018-05-29T02:36:07.301Z,89.73
2018-05-29T02:38:36.328Z,89.38
2018-05-29T02:41:04.584Z,88.96
2018-05-29T02:43:32.831Z,88.71
2018-05-29T02:46:01.103Z,87.99
2018-05-29T02:48:29.357Z,88.11
2018-05-29T02:50:57.625Z,87.92
2018-05-29T02:53:25.939Z,88.81
2018-05-29T02:55:54.193Z,88.43
2018-05-29T02:58:22.445Z,89.30
2018-05-29T03:00:50.716Z,89.43
2018-05-29T03:03:18.981Z,89.54
2018-05-29T03:05:47.237Z,90.28
2018-05-29T03:08:16.301Z,90.53
2018-05-29T03:10:44.556Z,90.79
2018-05-29T03:13:12.805Z,90.64
2018-05-29T03:15:41.109Z,90.26
2018-05-29T03:18:09.353Z,90.68
2018-05-29T03:20:37.609Z,90.39
2018-05-29T03:23:06.648Z,90.31
2018-05-29T03:25:34.896Z,90.43
2018-05-29T03:28:03.158Z,89.89
2018-05-29T03:30:32.193Z,90.20
2018-05-29T03:33:00.469Z,89.20
2018-05-29T03:35:28.725Z,88.99
2018-05-29T03:37:56.989Z,89.16
2018-05-29T03:40:25.254Z,89.13
2018-05-29T03:42:54.285Z,89.36
2018-05-29T03:45:22.552Z,89.58
2018-05-29T03:47:50.824Z,88.94
2018-05-29T03:50:19.822Z,88.83
2018-05-29T03:52:48.090Z,88.54
2018-05-29T03:55:16.348Z,88.38
2018-05-29T03:57:45.361Z,88.28
2018-05-29T04:00:13.652Z,87.91
2018-05-29T04:02:41.909Z,88.03
2018-05-29T04:05:10.152Z,87.99
2018-05-29T04:07:39.173Z,87.91
2018-05-29T04:10:07.446Z,87.61
2018-05-29T04:12:35.708Z,87.68
2018-05-29T04:15:04.746Z,87.33
2018-05-29T04:17:33.010Z,87.03
2018-05-29T04:20:01.274Z,87.75
2018-05-29T04:22:29.549Z,87.55
2018-05-29T04:24:57.801Z,87.56
2018-05-29T04:27:26.821Z,87.78
2018-05-29T04:29:55.096Z,87.53
2018-05-29T04:32:23.341Z,87.25
2018-05-29T04:34:52.385Z,87.70
2018-05-29T04:37:20.657Z,87.66
2018-05-29T04:39:48.928Z,87.00
2018-05-29T04:42:17.185Z,86.71
2018-05-29T04:44:45.461Z,86.78
2018-05-29T04:47:13.712Z,86.79
2018-05-29T04:49:42.736Z,85.78
2018-05-29T04:52:11.002Z,85.31
2018-05-29T04:54:40.017Z,85.67
2018-05-29T04:57:08.269Z,85.76
2018-05-29T04:59:37.339Z,86.98
2018-05-29T05:02:05.596Z,86.59
2018-05-29T05:04:33.870Z,86.10
2018-05-29T05:07:02.142Z,86.13
2018-05-29T05:09:30.398Z,86.01
2018-05-29T05:11:58.645Z,85.61
2018-05-29T05:14:27.688Z,85.17
2018-05-29T05:16:55.950Z,84.46
2018-05-29T05:19:24.227Z,84.08
2018-05-29T05:21:52.498Z,83.50
2018-05-29T05:24:20.760Z,85.23
2018-05-29T05:26:49.101Z,85.41
2018-05-29T05:29:17.384Z,84.70
2018-05-29T05:31:46.403Z,83.92
2018-05-29T05:34:14.689Z,83.52
2018-05-29T05:36:42.948Z,84.96
2018-05-29T05:39:11.972Z,84.22
2018-05-29T05:41:40.335Z,83.52
2018-05-29T05:44:08.604Z,82.99
2018-05-29T05:46:36.883Z,82.73
2018-05-29T05:49:05.169Z,82.65
2018-05-29T05:51:33.537Z,82.57
2018-05-29T05:54:01.788Z,82.40
2018-05-29T05:56:30.817Z,81.85
2018-05-29T05:58:59.081Z,82.06
2018-05-29T06:01:27.337Z,81.33
2018-05-29T06:03:56.436Z,80.73
2018-05-29T06:06:25.470Z,80.36
2018-05-29T06:08:53.725Z,80.40
2018-05-29T06:11:21.977Z,80.52
2018-05-29T06:13:51.012Z,80.23
2018-05-29T06:16:19.320Z,79.28
2018-05-29T06:18:47.529Z,77.73
2018-05-29T06:21:16.556Z,76.96
2018-05-29T06:23:44.808Z,75.73
2018-05-29T06:26:13.830Z,74.39
2018-05-29T06:28:42.108Z,73.41
2018-05-29T06:31:10.363Z,74.68
2018-05-29T06:33:38.616Z,74.80
2018-05-29T06:36:07.680Z,75.30
2018-05-29T06:38:35.971Z,74.40
2018-05-29T06:41:04.201Z,74.11
2018-05-29T06:43:32.469Z,75.00
2018-05-29T06:46:00.740Z,73.57
2018-05-29T06:48:28.981Z,73.79
2018-05-29T06:50:58.021Z,74.56
2018-05-29T06:53:26.273Z,73.68
2018-05-29T06:55:54.528Z,72.67
2018-05-29T06:58:23.557Z,71.57
2018-05-29T07:00:51.829Z,71.95
2018-05-29T07:03:20.069Z,72.03
2018-05-29T07:05:48.341Z,70.59
2018-05-29T07:08:16.604Z,70.40
2018-05-29T07:10:44.853Z,70.80
2018-05-29T07:13:13.124Z,69.57
2018-05-29T07:15:41.465Z,69.27
2018-05-29T07:18:10.520Z,69.70
2018-05-29T07:20:38.793Z,70.26
2018-05-29T07:23:07.057Z,69.04
2018-05-29T07:25:35.324Z,68.81
2018-05-29T07:28:03.586Z,68.08
2018-05-29T07:30:31.844Z,68.23
2018-05-29T07:33:00.873Z,67.79
2018-05-29T07:35:29.144Z,67.55
2018-05-29T07:37:57.395Z,67.52
2018-05-29T07:40:26.421Z,68.99
2018-05-29T07:42:54.710Z,67.36
2018-05-29T07:45:22.973Z,66.43
2018-05-29T07:47:51.305Z,67.26
2018-05-29T07:50:20.337Z,66.85
2018-05-29T07:52:48.637Z,66.00
2018-05-29T07:55:16.889Z,65.84
2018-05-29T07:57:45.165Z,66.41
2018-05-29T08:00:13.441Z,65.38
2018-05-29T08:02:41.708Z,64.87
2018-05-29T08:05:09.984Z,64.58
2018-05-29T08:07:38.244Z,65.03
2018-05-29T08:10:07.265Z,65.56
2018-05-29T08:12:35.525Z,64.37
2018-05-29T08:15:03.781Z,65.39
2018-05-29T08:17:32.789Z,64.58
2018-05-29T08:20:01.064Z,63.61
2018-05-29T08:22:30.069Z,65.30
2018-05-29T08:24:58.325Z,63.58
2018-05-29T08:27:27.362Z,65.56
2018-05-29T08:29:55.623Z,63.26
2018-05-29T08:32:23.880Z,62.41
2018-05-29T08:34:52.146Z,62.90
2018-05-29T08:37:21.156Z,62.25
2018-05-29T08:39:49.412Z,63.16
2018-05-29T08:42:18.456Z,65.01
2018-05-29T08:44:46.709Z,62.86
2018-05-29T08:47:14.974Z,63.59
2018-05-29T08:49:43.253Z,61.59
2018-05-29T08:52:12.265Z,62.12
2018-05-29T08:54:40.533Z,61.60
2018-05-29T08:57:08.798Z,62.25
2018-05-29T08:59:37.074Z,62.49
2018-05-29T09:02:05.329Z,60.80
2018-05-29T09:04:34.364Z,61.39
2018-05-29T09:07:02.628Z,60.37
2018-05-29T09:09:30.885Z,62.43
2018-05-29T09:11:59.927Z,61.64
2018-05-29T09:14:28.181Z,62.37
2018-05-29T09:16:56.423Z,59.40
2018-05-29T09:19:25.462Z,58.99
2018-05-29T09:21:53.711Z,60.47
2018-05-29T09:24:21.974Z,59.62
2018-05-29T09:26:51.004Z,61.62
2018-05-29T09:29:19.275Z,63.12
2018-05-29T09:31:47.522Z,61.36
2018-05-29T09:34:16.548Z,60.84
2018-05-29T09:36:44.799Z,62.68
2018-05-29T09:39:13.053Z,61.50
2018-05-29T09:41:41.353Z,62.45
2018-05-29T09:44:09.607Z,60.65
2018-05-29T09:46:38.723Z,59.48
2018-05-29T09:49:07.745Z,60.57
2018-05-29T09:51:35.995Z,60.52
2018-05-29T09:54:04.247Z,60.37
2018-05-29T09:56:32.523Z,59.53
2018-05-29T09:59:01.554Z,58.10
2018-05-29T10:01:29.807Z,59.05
2018-05-29T10:03:58.858Z,59.19
2018-05-29T10:06:27.139Z,59.04
2018-05-29T10:08:55.389Z,56.75
2018-05-29T10:11:23.697Z,56.42
2018-05-29T10:13:51.936Z,57.78
2018-05-29T10:16:20.216Z,56.13
2018-05-29T10:18:48.560Z,57.77
2018-05-29T10:21:17.590Z,57.13
2018-05-29T10:23:45.841Z,56.41
2018-05-29T10:26:14.112Z,54.51
2018-05-29T10:28:42.385Z,54.74
2018-05-29T10:31:11.393Z,55.64
2018-05-29T10:33:39.676Z,54.59
2018-05-29T10:36:07.949Z,56.20
2018-05-29T10:38:36.209Z,56.32
2018-05-29T10:41:05.249Z,54.96
2018-05-29T10:43:33.504Z,54.16
2018-05-29T10:46:01.796Z,52.91
2018-05-29T10:48:30.033Z,56.37
2018-05-29T10:50:58.300Z,55.28
2018-05-29T10:53:27.330Z,56.35
2018-05-29T10:55:55.609Z,54.69
2018-05-29T10:58:23.900Z,54.14
2018-05-29T11:00:52.153Z,52.75
2018-05-29T11:03:20.426Z,55.65
2018-05-29T11:05:48.716Z,53.36
2018-05-29T11:08:16.972Z,54.21
2018-05-29T11:10:45.249Z,53.56
2018-05-29T11:13:13.557Z,52.75
2018-05-29T11:15:41.813Z,53.91
2018-05-29T11:18:10.080Z,53.24
2018-05-29T11:20:38.338Z,52.99
2018-05-29T11:23:06.605Z,52.82
2018-05-29T11:25:35.649Z,50.74
2018-05-29T11:28:03.889Z,52.79
2018-05-29T11:30:32.148Z,52.80
2018-05-29T11:33:01.176Z,53.20
2018-05-29T11:35:29.435Z,53.38
2018-05-29T11:37:57.693Z,53.91
2018-05-29T11:40:25.999Z,52.55
2018-05-29T11:42:54.240Z,55.54
2018-05-29T11:45:23.271Z,52.47
2018-05-29T11:47:51.536Z,52.53
2018-05-29T11:50:19.793Z,52.87
2018-05-29T11:52:48.811Z,53.04
2018-05-29T11:55:17.089Z,50.04
2018-05-29T11:57:45.332Z,53.37
2018-05-29T12:00:14.357Z,53.19
2018-05-29T12:02:42.638Z,51.72
2018-05-29T12:05:10.896Z,51.38
2018-05-29T12:07:39.971Z,49.79
2018-05-29T12:10:08.185Z,50.46
2018-05-29T12:12:36.446Z,47.61
2018-05-29T12:15:04.704Z,47.72
2018-05-29T12:17:33.756Z,48.15
2018-05-29T12:20:02.779Z,50.14
2018-05-29T12:22:31.048Z,48.75
2018-05-29T12:24:59.333Z,49.18
2018-05-29T12:27:27.629Z,50.13
2018-05-29T12:29:56.656Z,47.16
2018-05-29T12:32:24.918Z,46.48
2018-05-29T12:34:53.173Z,45.12
2018-05-29T12:37:22.187Z,47.75
2018-05-29T12:39:50.453Z,45.47
2018-05-29T12:42:19.471Z,48.12
2018-05-29T12:44:47.724Z,46.10
2018-05-29T12:47:15.994Z,46.37
2018-05-29T12:49:45.018Z,44.26
2018-05-29T12:52:13.268Z,45.56
2018-05-29T12:54:41.540Z,47.04
2018-05-29T12:57:10.565Z,47.52
2018-05-29T12:59:38.820Z,46.51
2018-05-29T13:02:07.077Z,46.17
2018-05-29T13:04:36.094Z,43.74
2018-05-29T13:07:04.337Z,44.05
2018-05-29T13:09:32.623Z,43.43
2018-05-29T13:12:01.633Z,45.55
2018-05-29T13:14:29.889Z,45.62
2018-05-29T13:16:58.924Z,45.42
2018-05-29T13:19:27.183Z,44.35
2018-05-29T13:21:55.438Z,43.57
2018-05-29T13:24:24.474Z,44.90
2018-05-29T13:26:52.721Z,42.06
2018-05-29T13:29:21.760Z,42.49
2018-05-29T13:31:50.013Z,41.80
2018-05-29T13:34:18.263Z,41.89
2018-05-29T13:36:47.309Z,40.28
2018-05-29T13:39:15.592Z,42.68
2018-05-29T13:41:43.843Z,43.19
2018-05-29T13:44:12.133Z,44.58
2018-05-29T13:46:40.389Z,45.67
2018-05-29T13:49:08.667Z,45.08
2018-05-29T13:51:36.941Z,44.00
2018-05-29T13:54:05.205Z,44.15
2018-05-29T13:56:33.496Z,43.07
2018-05-29T13:59:01.712Z,43.51
2018-05-29T14:01:29.969Z,43.86
2018-05-29T14:03:58.220Z,44.06
2018-05-29T14:06:26.481Z,45.02
2018-05-29T14:08:54.784Z,46.03
2018-05-29T14:11:23.766Z,47.07
2018-05-29T14:13:52.055Z,48.70
2018-05-29T14:16:20.301Z,49.95
2018-05-29T14:18:49.789Z,50.89
2018-05-29T14:21:18.900Z,54.26
2018-05-29T14:23:47.169Z,54.88
2018-05-29T14:26:16.285Z,55.26
2018-05-29T14:28:44.553Z,57.43
2018-05-29T14:31:12.812Z,58.74
2018-05-29T14:33:41.860Z,59.88
2018-05-29T14:36:10.182Z,63.73
2018-05-29T14:38:39.284Z,71.43
2018-05-29T14:41:08.344Z,70.67
2018-05-29T14:43:36.664Z,71.26
2018-05-29T14:46:04.983Z,70.02
2018-05-29T14:48:33.307Z,73.92
2018-05-29T14:51:01.745Z,77.00
2018-05-29T14:53:30.062Z,77.97
2018-05-29T14:55:58.355Z,78.00
2018-05-29T14:58:26.680Z,79.12
2018-05-29T15:00:55.001Z,78.18
2018-05-29T15:03:23.330Z,79.45
2018-05-29T15:05:51.673Z,78.13
2018-05-29T15:08:19.998Z,85.36
2018-05-29T15:10:48.346Z,86.69
2018-05-29T15:13:16.680Z,88.23
2018-05-29T15:15:45.744Z,88.43
2018-05-29T15:18:14.077Z,89.01
2018-05-29T15:20:42.424Z,92.28
2018-05-29T15:23:11.517Z,90.80
2018-05-29T15:25:40.613Z,93.91
2018-05-29T15:28:09.712Z,92.58
2018-05-29T15:30:38.765Z,87.83
2018-05-29T15:33:07.085Z,87.54
2018-05-29T15:35:36.216Z,92.64
2018-05-29T15:38:04.523Z,91.62
2018-05-29T15:40:32.858Z,90.49
2018-05-29T15:43:01.179Z,91.40
2018-05-29T15:45:29.493Z,90.60
2018-05-29T15:47:58.580Z,91.92
2018-05-29T15:50:27.684Z,90.55
2018-05-29T15:52:56.759Z,91.04
2018-05-29T15:55:25.881Z,92.66
2018-05-29T15:57:54.977Z,90.12
2018-05-29T16:00:24.062Z,90.91
2018-05-29T16:02:53.164Z,89.84
2018-05-29T16:05:21.498Z,90.10
2018-05-29T16:07:49.808Z,90.92
2018-05-29T16:10:18.882Z,91.39
2018-05-29T16:12:47.189Z,92.81
2018-05-29T16:15:16.239Z,91.23
2018-05-29T16:17:44.546Z,90.50
2018-05-29T16:20:13.654Z,91.42
2018-05-29T16:22:42.738Z,91.17
2018-05-29T16:25:11.831Z,92.41
2018-05-29T16:27:40.126Z,92.44
2018-05-29T16:30:08.451Z,92.06
2018-05-29T16:32:36.750Z,91.04
2018-05-29T16:35:05.101Z,91.30
2018-05-29T16:37:33.492Z,91.84
2018-05-29T16:40:01.813Z,94.15
2018-05-29T16:42:30.902Z,94.58
2018-05-29T16:44:59.971Z,93.83
2018-05-29T16:47:28.275Z,94.93
2018-05-29T16:49:57.351Z,96.80
2018-05-29T16:52:25.670Z,96.78
2018-05-29T16:54:53.981Z,96.32
2018-05-29T16:57:22.320Z,96.29
2018-05-29T16:59:50.685Z,96.33
2018-05-29T17:02:19.112Z,96.45
2018-05-29T17:04:47.511Z,96.01
2018-05-29T17:07:15.830Z,96.60
2018-05-29T17:09:44.163Z,97.03
2018-05-29T17:12:12.450Z,97.23
2018-05-29T17:14:40.709Z,97.07
2018-05-29T17:17:08.972Z,97.29
2018-05-29T17:19:37.242Z,97.43
2018-05-29T17:22:05.530Z,96.54
2018-05-29T17:24:33.792Z,96.93
2018-05-29T17:27:02.438Z,96.20
2018-05-29T17:29:31.191Z,96.24
2018-05-29T17:31:59.818Z,95.29
2018-05-29T17:34:28.922Z,95.16
2018-05-29T17:36:57.908Z,96.01
2018-05-29T17:39:26.837Z,97.02
2018-05-29T17:41:57.742Z,97.66
2018-05-29T17:44:26.977Z,97.37
2018-05-29T17:46:56.313Z,97.57
2018-05-29T17:49:25.650Z,97.31
2018-05-29T17:51:55.801Z,96.69
2018-05-29T17:54:25.103Z,95.29
2018-05-29T17:56:54.344Z,96.22
2018-05-29T17:59:23.658Z,97.02
2018-05-29T18:01:52.868Z,98.67
2018-05-29T18:04:22.104Z,98.12
2018-05-29T18:06:51.466Z,98.16
2018-05-29T18:09:20.755Z,98.99
2018-05-29T18:11:50.162Z,99.13
2018-05-29T18:14:20.088Z,99.33
2018-05-29T18:16:50.220Z,100.00
2018-05-29T18:19:19.519Z,100.00
2018-05-29T18:21:48.795Z,98.83
2018-05-29T18:24:18.163Z,99.27
2018-05-29T18:26:47.404Z,99.31
2018-05-29T18:29:16.932Z,99.97
2018-05-29T18:31:47.668Z,100.00
2018-05-29T18:34:17.781Z,100.00
2018-05-29T18:36:48.011Z,100.00
2018-05-29T18:39:17.397Z,100.00
2018-05-29T18:41:46.744Z,100.00
2018-05-29T18:44:16.111Z,100.00
2018-05-29T18:46:45.512Z,100.00
2018-05-29T18:49:15.720Z,100.00
2018-05-29T18:51:46.687Z,98.62
2018-05-29T18:54:16.057Z,96.66
2018-05-29T18:56:46.116Z,97.01
2018-05-29T18:59:15.590Z,97.99
2018-05-29T19:01:45.633Z,97.93
2018-05-29T19:04:15.015Z,98.31
2018-05-29T19:06:45.131Z,98.55
2018-05-29T19:09:15.612Z,98.93
2018-05-29T19:11:44.918Z,99.20
2018-05-29T19:14:14.289Z,98.64
2018-05-29T19:16:44.412Z,98.40
2018-05-29T19:19:13.760Z,98.49
2018-05-29T19:21:43.152Z,97.05
2018-05-29T19:24:12.455Z,96.80
2018-05-29T19:26:41.802Z,96.41
2018-05-29T19:29:11.161Z,96.76
2018-05-29T19:31:40.438Z,96.83
2018-05-29T19:34:10.025Z,96.37
2018-05-29T19:36:39.454Z,96.83
2018-05-29T19:39:08.960Z,97.84
2018-05-29T19:41:38.522Z,98.63
2018-05-29T19:44:08.003Z,98.35
2018-05-29T19:46:38.278Z,98.84
2018-05-29T19:49:07.807Z,98.93
2018-05-29T19:51:37.143Z,99.04
2018-05-29T19:54:07.293Z,98.48
2018-05-29T19:56:36.569Z,98.15
2018-05-29T19:59:05.999Z,97.77
2018-05-29T20:01:35.391Z,97.55
2018-05-29T20:04:04.782Z,97.09
2018-05-29T20:06:34.956Z,98.67
2018-05-29T20:09:04.449Z,98.80
2018-05-29T20:11:33.807Z,98.77
2018-05-29T20:14:04.042Z,98.12
2018-05-29T20:16:33.570Z,97.69
2018-05-29T20:19:02.846Z,97.22
2018-05-29T20:21:32.167Z,96.92
2018-05-29T20:24:01.478Z,97.98
2018-05-29T20:26:30.819Z,97.37
2018-05-29T20:29:00.234Z,97.17
2018-05-29T20:31:30.322Z,96.89
2018-05-29T20:33:59.774Z,96.88
2018-05-29T20:36:29.109Z,96.62
2018-05-29T20:38:58.449Z,97.14
2018-05-29T20:41:27.869Z,97.07
2018-05-29T20:43:57.201Z,97.24
2018-05-29T20:46:26.453Z,97.26
2018-05-29T20:48:56.705Z,97.19
2018-05-29T20:51:25.994Z,97.74
2018-05-29T20:53:56.104Z,97.89
2018-05-29T20:56:25.894Z,97.75
2018-05-29T20:58:55.203Z,98.89
2018-05-29T21:01:24.535Z,99.21
2018-05-29T21:03:53.737Z,98.79
2018-05-29T21:06:23.549Z,98.38
2018-05-29T21:08:52.712Z,97.79
2018-05-29T21:11:21.757Z,97.97
2018-05-29T21:13:52.317Z,97.89
2018-05-29T21:16:20.671Z,97.90
2018-05-29T21:18:48.962Z,98.25
2018-05-29T21:21:17.341Z,97.69
2018-05-29T21:23:45.592Z,97.76
2018-05-29T21:26:13.853Z,96.90
2018-05-29T21:28:42.117Z,97.97
2018-05-29T21:31:10.376Z,98.21
2018-05-29T21:33:38.632Z,99.96
2018-05-29T21:36:07.674Z,99.14
2018-05-29T21:38:35.947Z,98.80
2018-05-29T21:41:04.200Z,98.58
2018-05-29T21:43:32.468Z,98.08
2018-05-29T21:46:01.494Z,98.04
2018-05-29T21:48:29.742Z,99.21
2018-05-29T21:50:58.061Z,99.67
2018-05-29T21:53:26.317Z,99.14
2018-05-29T21:55:54.568Z,99.06
2018-05-29T21:58:23.615Z,98.52
2018-05-29T22:00:52.636Z,98.43
2018-05-29T22:03:20.920Z,98.84
2018-05-29T22:05:50.101Z,98.18
2018-05-29T22:08:18.349Z,98.12
2018-05-29T22:10:46.603Z,98.12
2018-05-29T22:13:14.870Z,97.70
2018-05-29T22:15:43.136Z,97.11
2018-05-29T22:18:12.149Z,97.11
2018-05-29T22:20:40.452Z,96.94
2018-05-29T22:23:09.483Z,96.86
2018-05-29T22:25:37.793Z,96.67
2018-05-29T22:28:06.181Z,96.79
2018-05-29T22:30:34.479Z,96.82
2018-05-29T22:33:02.742Z,97.47
2018-05-29T22:35:31.009Z,98.13
2018-05-29T22:38:00.069Z,99.12
2018-05-29T22:40:29.098Z,99.01
2018-05-29T22:42:57.384Z,98.84
2018-05-29T22:45:25.655Z,98.74
2018-05-29T22:47:54.100Z,98.58
2018-05-29T22:50:22.405Z,98.75
2018-05-29T22:52:50.924Z,98.31
2018-05-29T22:55:19.222Z,98.41
2018-05-29T22:57:47.496Z,99.37
2018-05-29T23:00:15.753Z,99.95
2018-05-29T23:02:44.793Z,100.00
2018-05-29T23:05:13.084Z,100.00
2018-05-29T23:07:41.353Z,99.35
2018-05-29T23:10:09.639Z,98.95
2018-05-29T23:12:37.941Z,98.85
2018-05-29T23:15:06.206Z,98.50
2018-05-29T23:17:34.533Z,97.83
2018-05-29T23:20:03.572Z,97.45
2018-05-29T23:22:31.828Z,97.49
2018-05-29T23:25:00.089Z,98.30
2018-05-29T23:27:29.158Z,98.41
2018-05-29T23:29:57.561Z,98.06
2018-05-29T23:32:26.745Z,97.66
2018-05-29T23:34:55.794Z,98.13
2018-05-29T23:37:24.082Z,98.06
2018-05-29T23:39:52.389Z,97.94
2018-05-29T23:42:21.441Z,97.42
2018-05-29T23:44:49.708Z,97.32
2018-05-29T23:47:17.987Z,96.98
2018-05-29T23:49:46.296Z,97.21
2018-05-29T23:52:14.681Z,97.49
2018-05-29T23:54:42.989Z,97.77
2018-05-29T23:57:11.305Z,98.13
2018-05-29T23:59:39.574Z,97.98
